Terminal Aerodrome Forecast
Issued by NWS

Home | Current Version | Previous Version | Graphics & Text | Print | Product List | Glossary On
Versions: 1 2 3 4 5 6 7 8 9 10 11 12 13 14 15 16 17 18 19 20 21 22
000
FTUS43 KOAX 231602 AAA
TAFCDR
TAF AMD
KCDR 231602Z 2316/2412 04008KT P6SM OVC003
     FM231700 15020G30KT P6SM BKN015 OVC050
     FM240000 21018G28KT P6SM -SHRA VCTS SCT050CB BKN100
     FM240300 29012G22KT P6SM SCT100=

USA.gov is the U.S. government's official web portal to all federal, state and local government web resources and services.